sensor_id;sensor_type;location;lat;lon;timestamp;P1;durP1;ratioP1;P2;durP2;ratioP2
1959;SDS011;980;43.794;11.212;2023-03-02T00:00:35;1.00;;;1.00;;
1959;SDS011;980;43.794;11.212;2023-03-02T00:03:00;0.67;;;0.67;;
1959;SDS011;980;43.794;11.212;2023-03-02T00:05:27;1.00;;;1.00;;
1959;SDS011;980;43.794;11.212;2023-03-02T00:07:52;0.00;;;0.00;;
1959;SDS011;980;43.794;11.212;2023-03-02T00:10:18;1.00;;;1.00;;
1959;SDS011;980;43.794;11.212;2023-03-02T00:12:44;0.67;;;0.67;;
1959;SDS011;980;43.794;11.212;2023-03-02T00:15:09;0.67;;;0.67;;
1959;SDS011;980;43.794;11.212;2023-03-02T00:17:34;1.00;;;1.00;;
1959;SDS011;980;43.794;11.212;2023-03-02T00:20:01;0.00;;;0.00;;
1959;SDS011;980;43.794;11.212;2023-03-02T00:22:36;0.00;;;0.00;;
1959;SDS011;980;43.794;11.212;2023-03-02T00:25:02;0.33;;;0.33;;
1959;SDS011;980;43.794;11.212;2023-03-02T00:27:28;4.00;;;4.00;;
1959;SDS011;980;43.794;11.212;2023-03-02T00:29:56;1.00;;;1.00;;
1959;SDS011;980;43.794;11.212;2023-03-02T00:32:22;1.00;;;1.00;;
1959;SDS011;980;43.794;11.212;2023-03-02T00:34:47;0.00;;;0.00;;
1959;SDS011;980;43.794;11.212;2023-03-02T00:37:13;1.00;;;1.00;;
1959;SDS011;980;43.794;11.212;2023-03-02T00:39:38;1.00;;;1.00;;
1959;SDS011;980;43.794;11.212;2023-03-02T00:42:03;0.00;;;0.00;;
1959;SDS011;980;43.794;11.212;2023-03-02T00:44:28;1.00;;;1.00;;
1959;SDS011;980;43.794;11.212;2023-03-02T00:46:54;1.00;;;0.67;;
1959;SDS011;980;43.794;11.212;2023-03-02T00:49:19;3.00;;;1.00;;
1959;SDS011;980;43.794;11.212;2023-03-02T00:51:45;1.00;;;1.00;;
1959;SDS011;980;43.794;11.212;2023-03-02T00:54:10;0.00;;;0.00;;
1959;SDS011;980;43.794;11.212;2023-03-02T00:56:35;3.00;;;1.00;;
1959;SDS011;980;43.794;11.212;2023-03-02T00:59:04;0.33;;;0.33;;
1959;SDS011;980;43.794;11.212;2023-03-02T01:01:30;1.00;;;1.00;;
1959;SDS011;980;43.794;11.212;2023-03-02T01:03:55;0.00;;;0.00;;
1959;SDS011;980;43.794;11.212;2023-03-02T01:06:20;0.67;;;0.67;;
1959;SDS011;980;43.794;11.212;2023-03-02T01:08:46;2.33;;;2.33;;
1959;SDS011;980;43.794;11.212;2023-03-02T01:11:12;1.00;;;1.00;;
1959;SDS011;980;43.794;11.212;2023-03-02T01:13:38;0.00;;;0.00;;
1959;SDS011;980;43.794;11.212;2023-03-02T01:16:03;1.00;;;1.00;;
1959;SDS011;980;43.794;11.212;2023-03-02T01:18:28;7.00;;;1.00;;
1959;SDS011;980;43.794;11.212;2023-03-02T01:21:04;1.00;;;1.00;;
1959;SDS011;980;43.794;11.212;2023-03-02T01:23:30;5.33;;;1.00;;
1959;SDS011;980;43.794;11.212;2023-03-02T01:25:55;3.00;;;0.00;;
1959;SDS011;980;43.794;11.212;2023-03-02T01:28:20;0.33;;;0.33;;
1959;SDS011;980;43.794;11.212;2023-03-02T01:30:46;1.00;;;1.00;;
1959;SDS011;980;43.794;11.212;2023-03-02T01:33:11;3.00;;;1.00;;
1959;SDS011;980;43.794;11.212;2023-03-02T01:35:36;0.33;;;0.33;;
1959;SDS011;980;43.794;11.212;2023-03-02T01:38:01;0.00;;;0.00;;
1959;SDS011;980;43.794;11.212;2023-03-02T01:40:27;0.67;;;0.67;;
1959;SDS011;980;43.794;11.212;2023-03-02T01:42:55;2.00;;;1.00;;
1959;SDS011;980;43.794;11.212;2023-03-02T01:48:04;2.67;;;1.00;;
1959;SDS011;980;43.794;11.212;2023-03-02T01:50:30;0.00;;;0.00;;
1959;SDS011;980;43.794;11.212;2023-03-02T01:52:55;3.00;;;1.00;;
1959;SDS011;980;43.794;11.212;2023-03-02T01:55:22;1.67;;;1.00;;
1959;SDS011;980;43.794;11.212;2023-03-02T01:57:49;1.00;;;1.00;;
1959;SDS011;980;43.794;11.212;2023-03-02T02:00:21;1.00;;;1.00;;
1959;SDS011;980;43.794;11.212;2023-03-02T02:02:47;0.67;;;0.67;;
1959;SDS011;980;43.794;11.212;2023-03-02T02:05:18;4.00;;;0.67;;
1959;SDS011;980;43.794;11.212;2023-03-02T02:07:43;3.00;;;3.00;;
1959;SDS011;980;43.794;11.212;2023-03-02T02:10:09;0.67;;;0.67;;
1959;SDS011;980;43.794;11.212;2023-03-02T02:12:35;1.67;;;1.67;;
1959;SDS011;980;43.794;11.212;2023-03-02T02:15:00;0.00;;;0.00;;
1959;SDS011;980;43.794;11.212;2023-03-02T02:17:29;1.00;;;1.00;;
1959;SDS011;980;43.794;11.212;2023-03-02T02:20:00;3.00;;;1.00;;
1959;SDS011;980;43.794;11.212;2023-03-02T02:25:05;3.00;;;1.00;;
1959;SDS011;980;43.794;11.212;2023-03-02T02:27:35;3.67;;;1.00;;
1959;SDS011;980;43.794;11.212;2023-03-02T02:30:02;1.00;;;1.00;;
1959;SDS011;980;43.794;11.212;2023-03-02T02:32:29;1.00;;;1.00;;
1959;SDS011;980;43.794;11.212;2023-03-02T02:35:18;1.00;;;1.00;;
1959;SDS011;980;43.794;11.212;2023-03-02T02:37:49;6.33;;;3.67;;
1959;SDS011;980;43.794;11.212;2023-03-02T02:40:17;6.33;;;1.00;;
1959;SDS011;980;43.794;11.212;2023-03-02T02:42:43;3.00;;;3.00;;
1959;SDS011;980;43.794;11.212;2023-03-02T02:45:16;3.00;;;3.00;;
1959;SDS011;980;43.794;11.212;2023-03-02T02:47:42;6.00;;;0.67;;
1959;SDS011;980;43.794;11.212;2023-03-02T02:50:08;1.00;;;1.00;;
1959;SDS011;980;43.794;11.212;2023-03-02T02:52:40;1.00;;;1.00;;
1959;SDS011;980;43.794;11.212;2023-03-02T02:55:08;1.67;;;1.00;;
1959;SDS011;980;43.794;11.212;2023-03-02T02:57:38;3.00;;;3.00;;
1959;SDS011;980;43.794;11.212;2023-03-02T03:00:04;1.00;;;1.00;;
1959;SDS011;980;43.794;11.212;2023-03-02T03:02:31;3.00;;;3.00;;
1959;SDS011;980;43.794;11.212;2023-03-02T03:04:58;3.00;;;3.00;;
1959;SDS011;980;43.794;11.212;2023-03-02T03:07:28;6.00;;;0.00;;
1959;SDS011;980;43.794;11.212;2023-03-02T03:12:23;2.00;;;2.00;;
1959;SDS011;980;43.794;11.212;2023-03-02T03:14:49;4.00;;;2.33;;
1959;SDS011;980;43.794;11.212;2023-03-02T03:17:14;4.00;;;4.00;;
1959;SDS011;980;43.794;11.212;2023-03-02T03:19:41;2.00;;;1.33;;
1959;SDS011;980;43.794;11.212;2023-03-02T03:22:07;4.00;;;4.00;;
1959;SDS011;980;43.794;11.212;2023-03-02T03:24:36;5.00;;;2.67;;
1959;SDS011;980;43.794;11.212;2023-03-02T03:27:01;2.00;;;2.00;;
1959;SDS011;980;43.794;11.212;2023-03-02T03:29:29;2.00;;;2.00;;
1959;SDS011;980;43.794;11.212;2023-03-02T03:31:56;5.00;;;2.00;;
1959;SDS011;980;43.794;11.212;2023-03-02T03:34:21;4.00;;;1.67;;
1959;SDS011;980;43.794;11.212;2023-03-02T03:36:47;2.00;;;2.00;;
1959;SDS011;980;43.794;11.212;2023-03-02T03:39:13;5.00;;;1.67;;
1959;SDS011;980;43.794;11.212;2023-03-02T03:41:39;5.00;;;2.67;;
1959;SDS011;980;43.794;11.212;2023-03-02T03:44:04;2.00;;;2.00;;
1959;SDS011;980;43.794;11.212;2023-03-02T03:46:29;1.67;;;1.33;;
1959;SDS011;980;43.794;11.212;2023-03-02T03:48:55;2.00;;;2.00;;
1959;SDS011;980;43.794;11.212;2023-03-02T03:51:21;1.00;;;1.00;;
1959;SDS011;980;43.794;11.212;2023-03-02T03:53:46;8.00;;;2.00;;
1959;SDS011;980;43.794;11.212;2023-03-02T03:56:23;4.00;;;4.00;;
1959;SDS011;980;43.794;11.212;2023-03-02T03:58:48;5.67;;;2.00;;
1959;SDS011;980;43.794;11.212;2023-03-02T04:01:14;4.00;;;2.00;;
1959;SDS011;980;43.794;11.212;2023-03-02T04:03:39;3.33;;;2.00;;
1959;SDS011;980;43.794;11.212;2023-03-02T04:06:04;5.00;;;2.00;;
1959;SDS011;980;43.794;11.212;2023-03-02T04:08:30;2.67;;;1.00;;
1959;SDS011;980;43.794;11.212;2023-03-02T04:10:55;2.00;;;1.00;;
1959;SDS011;980;43.794;11.212;2023-03-02T04:13:21;2.00;;;1.00;;
1959;SDS011;980;43.794;11.212;2023-03-02T04:15:46;1.00;;;1.00;;
1959;SDS011;980;43.794;11.212;2023-03-02T04:18:11;3.33;;;0.00;;
1959;SDS011;980;43.794;11.212;2023-03-02T04:20:37;1.00;;;1.00;;
1959;SDS011;980;43.794;11.212;2023-03-02T04:23:02;1.33;;;1.33;;
1959;SDS011;980;43.794;11.212;2023-03-02T04:25:28;1.00;;;1.00;;
1959;SDS011;980;43.794;11.212;2023-03-02T04:27:54;2.67;;;2.00;;
1959;SDS011;980;43.794;11.212;2023-03-02T04:30:21;1.67;;;1.00;;
1959;SDS011;980;43.794;11.212;2023-03-02T04:32:47;2.67;;;1.33;;
1959;SDS011;980;43.794;11.212;2023-03-02T04:35:12;5.00;;;2.00;;
1959;SDS011;980;43.794;11.212;2023-03-02T04:37:37;0.00;;;0.00;;
1959;SDS011;980;43.794;11.212;2023-03-02T04:40:03;4.00;;;1.00;;
1959;SDS011;980;43.794;11.212;2023-03-02T04:42:28;1.00;;;1.00;;
1959;SDS011;980;43.794;11.212;2023-03-02T04:44:53;1.00;;;1.00;;
1959;SDS011;980;43.794;11.212;2023-03-02T04:47:19;2.33;;;1.00;;
1959;SDS011;980;43.794;11.212;2023-03-02T04:49:44;1.67;;;1.67;;
1959;SDS011;980;43.794;11.212;2023-03-02T04:52:09;1.33;;;1.00;;
1959;SDS011;980;43.794;11.212;2023-03-02T04:54:35;1.00;;;1.00;;
1959;SDS011;980;43.794;11.212;2023-03-02T04:57:00;4.00;;;2.00;;
1959;SDS011;980;43.794;11.212;2023-03-02T04:59:26;1.33;;;1.00;;
1959;SDS011;980;43.794;11.212;2023-03-02T05:01:53;1.33;;;1.00;;
1959;SDS011;980;43.794;11.212;2023-03-02T05:04:18;4.00;;;1.33;;
1959;SDS011;980;43.794;11.212;2023-03-02T05:06:44;2.67;;;1.00;;
1959;SDS011;980;43.794;11.212;2023-03-02T05:09:09;2.00;;;1.00;;
1959;SDS011;980;43.794;11.212;2023-03-02T05:11:35;1.00;;;1.00;;
1959;SDS011;980;43.794;11.212;2023-03-02T05:14:05;1.33;;;1.00;;
1959;SDS011;980;43.794;11.212;2023-03-02T05:16:31;4.33;;;2.00;;
1959;SDS011;980;43.794;11.212;2023-03-02T05:18:57;3.33;;;2.67;;
1959;SDS011;980;43.794;11.212;2023-03-02T05:21:23;1.33;;;1.33;;
1959;SDS011;980;43.794;11.212;2023-03-02T05:23:49;10.33;;;3.33;;
1959;SDS011;980;43.794;11.212;2023-03-02T05:26:14;2.00;;;1.00;;
1959;SDS011;980;43.794;11.212;2023-03-02T05:28:39;5.00;;;2.00;;
1959;SDS011;980;43.794;11.212;2023-03-02T05:31:05;2.00;;;2.00;;
1959;SDS011;980;43.794;11.212;2023-03-02T05:33:30;7.00;;;4.00;;
1959;SDS011;980;43.794;11.212;2023-03-02T05:35:56;4.00;;;4.00;;
1959;SDS011;980;43.794;11.212;2023-03-02T05:38:21;5.00;;;4.00;;
1959;SDS011;980;43.794;11.212;2023-03-02T05:40:47;4.00;;;4.00;;
1959;SDS011;980;43.794;11.212;2023-03-02T05:43:14;10.33;;;8.00;;
1959;SDS011;980;43.794;11.212;2023-03-02T05:45:39;5.67;;;4.00;;
1959;SDS011;980;43.794;11.212;2023-03-02T05:48:05;4.00;;;2.67;;
1959;SDS011;980;43.794;11.212;2023-03-02T05:50:31;4.00;;;4.00;;
1959;SDS011;980;43.794;11.212;2023-03-02T05:52:57;3.67;;;2.00;;
1959;SDS011;980;43.794;11.212;2023-03-02T05:55:24;7.00;;;7.00;;
1959;SDS011;980;43.794;11.212;2023-03-02T05:57:49;1.33;;;1.00;;
1959;SDS011;980;43.794;11.212;2023-03-02T06:00:15;7.00;;;4.67;;
1959;SDS011;980;43.794;11.212;2023-03-02T06:02:41;4.00;;;4.00;;
1959;SDS011;980;43.794;11.212;2023-03-02T06:05:06;7.67;;;5.00;;
1959;SDS011;980;43.794;11.212;2023-03-02T06:07:32;2.00;;;2.00;;
1959;SDS011;980;43.794;11.212;2023-03-02T06:09:58;7.33;;;5.00;;
1959;SDS011;980;43.794;11.212;2023-03-02T06:12:23;4.00;;;4.00;;
1959;SDS011;980;43.794;11.212;2023-03-02T06:14:48;7.00;;;4.00;;
1959;SDS011;980;43.794;11.212;2023-03-02T06:17:14;7.33;;;5.00;;
1959;SDS011;980;43.794;11.212;2023-03-02T06:19:39;7.00;;;4.00;;
1959;SDS011;980;43.794;11.212;2023-03-02T06:22:04;4.00;;;4.00;;
1959;SDS011;980;43.794;11.212;2023-03-02T06:24:29;5.00;;;4.33;;
1959;SDS011;980;43.794;11.212;2023-03-02T06:26:55;4.33;;;4.33;;
1959;SDS011;980;43.794;11.212;2023-03-02T06:29:21;4.00;;;4.00;;
1959;SDS011;980;43.794;11.212;2023-03-02T06:31:46;4.33;;;2.67;;
1959;SDS011;980;43.794;11.212;2023-03-02T06:34:11;2.00;;;2.00;;
1959;SDS011;980;43.794;11.212;2023-03-02T06:36:37;7.33;;;5.00;;
1959;SDS011;980;43.794;11.212;2023-03-02T06:39:04;2.00;;;2.00;;
1959;SDS011;980;43.794;11.212;2023-03-02T06:41:29;2.67;;;2.00;;
1959;SDS011;980;43.794;11.212;2023-03-02T06:43:55;5.33;;;4.00;;
1959;SDS011;980;43.794;11.212;2023-03-02T06:46:20;7.33;;;4.00;;
1959;SDS011;980;43.794;11.212;2023-03-02T06:48:45;4.33;;;4.00;;
1959;SDS011;980;43.794;11.212;2023-03-02T06:51:11;4.33;;;4.33;;
1959;SDS011;980;43.794;11.212;2023-03-02T06:53:36;5.67;;;5.67;;
1959;SDS011;980;43.794;11.212;2023-03-02T06:56:02;7.00;;;4.67;;
1959;SDS011;980;43.794;11.212;2023-03-02T06:58:27;10.00;;;7.33;;
1959;SDS011;980;43.794;11.212;2023-03-02T07:00:53;7.67;;;7.00;;
1959;SDS011;980;43.794;11.212;2023-03-02T07:03:18;5.00;;;5.00;;
1959;SDS011;980;43.794;11.212;2023-03-02T07:05:43;4.00;;;4.00;;
